sensor_id;sensor_type;location;lat;lon;timestamp;temperature;humidity
65291;SHT30;51893;59.754;10.110;2023-09-08T00:01:29;17.38;81.60
65291;SHT30;51893;59.754;10.110;2023-09-08T00:03:57;17.36;81.68
65291;SHT30;51893;59.754;10.110;2023-09-08T00:06:26;17.37;81.71
65291;SHT30;51893;59.754;10.110;2023-09-08T00:08:54;17.42;81.65
65291;SHT30;51893;59.754;10.110;2023-09-08T00:11:22;17.44;81.64
65291;SHT30;51893;59.754;10.110;2023-09-08T00:13:51;17.44;81.70
65291;SHT30;51893;59.754;10.110;2023-09-08T00:16:19;17.44;81.70
65291;SHT30;51893;59.754;10.110;2023-09-08T00:18:47;17.46;81.66
65291;SHT30;51893;59.754;10.110;2023-09-08T00:21:15;17.44;81.69
65291;SHT30;51893;59.754;10.110;2023-09-08T00:23:43;17.39;81.82
65291;SHT30;51893;59.754;10.110;2023-09-08T00:26:11;17.33;81.98
65291;SHT30;51893;59.754;10.110;2023-09-08T00:28:39;17.26;82.12
65291;SHT30;51893;59.754;10.110;2023-09-08T00:31:07;17.25;82.30
65291;SHT30;51893;59.754;10.110;2023-09-08T00:33:35;17.23;82.36
65291;SHT30;51893;59.754;10.110;2023-09-08T00:36:05;17.25;82.36
65291;SHT30;51893;59.754;10.110;2023-09-08T00:38:33;17.24;82.43
65291;SHT30;51893;59.754;10.110;2023-09-08T00:41:01;17.23;82.48
65291;SHT30;51893;59.754;10.110;2023-09-08T00:43:30;17.21;82.58
65291;SHT30;51893;59.754;10.110;2023-09-08T00:45:58;17.20;82.59
65291;SHT30;51893;59.754;10.110;2023-09-08T00:48:27;17.21;82.67
65291;SHT30;51893;59.754;10.110;2023-09-08T00:50:56;17.21;82.67
65291;SHT30;51893;59.754;10.110;2023-09-08T00:53:27;17.25;82.68
65291;SHT30;51893;59.754;10.110;2023-09-08T00:55:56;17.31;82.56
65291;SHT30;51893;59.754;10.110;2023-09-08T00:58:26;17.31;82.50
65291;SHT30;51893;59.754;10.110;2023-09-08T01:00:54;17.34;82.44
65291;SHT30;51893;59.754;10.110;2023-09-08T01:03:25;17.34;82.46
65291;SHT30;51893;59.754;10.110;2023-09-08T01:05:54;17.35;82.51
65291;SHT30;51893;59.754;10.110;2023-09-08T01:08:23;17.32;82.58
65291;SHT30;51893;59.754;10.110;2023-09-08T01:10:51;17.30;82.64
65291;SHT30;51893;59.754;10.110;2023-09-08T01:13:20;17.27;82.72
65291;SHT30;51893;59.754;10.110;2023-09-08T01:15:49;17.25;82.71
65291;SHT30;51893;59.754;10.110;2023-09-08T01:18:17;17.28;82.68
65291;SHT30;51893;59.754;10.110;2023-09-08T01:20:55;17.31;82.66
65291;SHT30;51893;59.754;10.110;2023-09-08T01:26:56;17.36;82.62
65291;SHT30;51893;59.754;10.110;2023-09-08T01:29:25;17.34;82.61
65291;SHT30;51893;59.754;10.110;2023-09-08T01:31:55;17.31;82.70
65291;SHT30;51893;59.754;10.110;2023-09-08T01:34:25;17.29;82.75
65291;SHT30;51893;59.754;10.110;2023-09-08T01:36:53;17.31;82.75
65291;SHT30;51893;59.754;10.110;2023-09-08T01:39:21;17.32;82.70
65291;SHT30;51893;59.754;10.110;2023-09-08T01:41:49;17.31;82.70
65291;SHT30;51893;59.754;10.110;2023-09-08T01:44:17;17.32;82.71
65291;SHT30;51893;59.754;10.110;2023-09-08T01:46:45;17.31;82.78
65291;SHT30;51893;59.754;10.110;2023-09-08T01:49:13;17.31;82.78
65291;SHT30;51893;59.754;10.110;2023-09-08T01:51:41;17.30;82.80
65291;SHT30;51893;59.754;10.110;2023-09-08T01:54:09;17.29;82.80
65291;SHT30;51893;59.754;10.110;2023-09-08T01:56:38;17.29;82.78
65291;SHT30;51893;59.754;10.110;2023-09-08T01:59:06;17.32;82.76
65291;SHT30;51893;59.754;10.110;2023-09-08T02:01:34;17.33;82.70
65291;SHT30;51893;59.754;10.110;2023-09-08T02:04:02;17.33;82.73
65291;SHT30;51893;59.754;10.110;2023-09-08T02:06:30;17.29;82.82
65291;SHT30;51893;59.754;10.110;2023-09-08T02:08:59;17.27;82.90
65291;SHT30;51893;59.754;10.110;2023-09-08T02:11:27;17.29;82.95
65291;SHT30;51893;59.754;10.110;2023-09-08T02:13:56;17.33;82.79
65291;SHT30;51893;59.754;10.110;2023-09-08T02:16:25;17.40;82.64
65291;SHT30;51893;59.754;10.110;2023-09-08T02:18:53;17.43;82.51
65291;SHT30;51893;59.754;10.110;2023-09-08T02:21:21;17.42;82.49
65291;SHT30;51893;59.754;10.110;2023-09-08T02:23:50;17.44;82.50
65291;SHT30;51893;59.754;10.110;2023-09-08T02:26:18;17.44;82.52
65291;SHT30;51893;59.754;10.110;2023-09-08T02:28:46;17.41;82.56
65291;SHT30;51893;59.754;10.110;2023-09-08T02:31:14;17.37;82.65
65291;SHT30;51893;59.754;10.110;2023-09-08T02:33:42;17.35;82.71
65291;SHT30;51893;59.754;10.110;2023-09-08T02:36:10;17.36;82.70
65291;SHT30;51893;59.754;10.110;2023-09-08T02:38:38;17.39;82.69
65291;SHT30;51893;59.754;10.110;2023-09-08T02:41:06;17.37;82.88
65291;SHT30;51893;59.754;10.110;2023-09-08T02:43:35;17.40;82.78
65291;SHT30;51893;59.754;10.110;2023-09-08T02:46:02;17.38;82.80
65291;SHT30;51893;59.754;10.110;2023-09-08T02:48:30;17.38;82.79
65291;SHT30;51893;59.754;10.110;2023-09-08T02:50:59;17.38;82.75
65291;SHT30;51893;59.754;10.110;2023-09-08T02:53:27;17.40;82.70
65291;SHT30;51893;59.754;10.110;2023-09-08T02:55:59;17.44;82.62
65291;SHT30;51893;59.754;10.110;2023-09-08T02:58:28;17.44;82.61
65291;SHT30;51893;59.754;10.110;2023-09-08T03:00:56;17.46;82.59
65291;SHT30;51893;59.754;10.110;2023-09-08T03:03:24;17.46;82.51
65291;SHT30;51893;59.754;10.110;2023-09-08T03:05:55;17.44;82.56
65291;SHT30;51893;59.754;10.110;2023-09-08T03:08:25;17.41;82.59
65291;SHT30;51893;59.754;10.110;2023-09-08T03:10:57;17.34;82.71
65291;SHT30;51893;59.754;10.110;2023-09-08T03:13:28;17.26;82.95
65291;SHT30;51893;59.754;10.110;2023-09-08T03:15:58;17.24;83.05
65291;SHT30;51893;59.754;10.110;2023-09-08T03:18:35;17.30;82.95
65291;SHT30;51893;59.754;10.110;2023-09-08T03:21:05;17.27;82.90
65291;SHT30;51893;59.754;10.110;2023-09-08T03:23:38;17.25;82.97
65291;SHT30;51893;59.754;10.110;2023-09-08T03:26:08;17.23;83.05
65291;SHT30;51893;59.754;10.110;2023-09-08T03:28:38;17.21;83.24
65291;SHT30;51893;59.754;10.110;2023-09-08T03:31:06;17.19;83.30
65291;SHT30;51893;59.754;10.110;2023-09-08T03:33:34;17.19;83.32
65291;SHT30;51893;59.754;10.110;2023-09-08T03:36:03;17.19;83.32
65291;SHT30;51893;59.754;10.110;2023-09-08T03:38:31;17.19;83.37
65291;SHT30;51893;59.754;10.110;2023-09-08T03:41:00;17.19;83.40
65291;SHT30;51893;59.754;10.110;2023-09-08T03:43:28;17.18;83.44
65291;SHT30;51893;59.754;10.110;2023-09-08T03:45:56;17.20;83.45
65291;SHT30;51893;59.754;10.110;2023-09-08T03:48:24;17.25;83.27
65291;SHT30;51893;59.754;10.110;2023-09-08T03:50:52;17.30;83.14
65291;SHT30;51893;59.754;10.110;2023-09-08T03:53:20;17.31;83.10
65291;SHT30;51893;59.754;10.110;2023-09-08T03:55:48;17.26;83.30
65291;SHT30;51893;59.754;10.110;2023-09-08T03:58:16;17.25;83.31
65291;SHT30;51893;59.754;10.110;2023-09-08T04:00:44;17.23;83.30
65291;SHT30;51893;59.754;10.110;2023-09-08T04:03:12;17.21;83.30
65291;SHT30;51893;59.754;10.110;2023-09-08T04:05:41;17.17;83.37
65291;SHT30;51893;59.754;10.110;2023-09-08T04:08:09;17.15;83.45
65291;SHT30;51893;59.754;10.110;2023-09-08T04:10:37;17.11;83.57
65291;SHT30;51893;59.754;10.110;2023-09-08T04:13:05;17.12;83.55
65291;SHT30;51893;59.754;10.110;2023-09-08T04:15:33;17.10;83.57
65291;SHT30;51893;59.754;10.110;2023-09-08T04:18:01;17.09;83.62
65291;SHT30;51893;59.754;10.110;2023-09-08T04:20:29;17.12;83.65
65291;SHT30;51893;59.754;10.110;2023-09-08T04:22:57;17.19;83.35
65291;SHT30;51893;59.754;10.110;2023-09-08T04:25:25;17.19;83.31
65291;SHT30;51893;59.754;10.110;2023-09-08T04:27:54;17.18;83.41
65291;SHT30;51893;59.754;10.110;2023-09-08T04:30:22;17.17;83.45
65291;SHT30;51893;59.754;10.110;2023-09-08T04:32:50;17.11;83.63
65291;SHT30;51893;59.754;10.110;2023-09-08T04:35:18;17.07;83.81
65291;SHT30;51893;59.754;10.110;2023-09-08T04:37:46;17.02;83.99
65291;SHT30;51893;59.754;10.110;2023-09-08T04:40:14;16.99;84.03
65291;SHT30;51893;59.754;10.110;2023-09-08T04:42:42;16.95;84.15
65291;SHT30;51893;59.754;10.110;2023-09-08T04:45:10;16.90;84.33
65291;SHT30;51893;59.754;10.110;2023-09-08T04:47:38;16.89;84.48
65291;SHT30;51893;59.754;10.110;2023-09-08T04:50:06;16.87;84.54
65291;SHT30;51893;59.754;10.110;2023-09-08T04:52:35;16.85;84.69
65291;SHT30;51893;59.754;10.110;2023-09-08T04:55:05;16.82;84.77
65291;SHT30;51893;59.754;10.110;2023-09-08T04:57:34;16.82;84.83
65291;SHT30;51893;59.754;10.110;2023-09-08T05:00:02;16.77;84.94
65291;SHT30;51893;59.754;10.110;2023-09-08T05:02:30;16.73;85.06
65291;SHT30;51893;59.754;10.110;2023-09-08T05:04:59;16.72;85.16
65291;SHT30;51893;59.754;10.110;2023-09-08T05:07:27;16.71;85.22
65291;SHT30;51893;59.754;10.110;2023-09-08T05:09:55;16.75;85.21
65291;SHT30;51893;59.754;10.110;2023-09-08T05:12:24;16.73;85.27
65291;SHT30;51893;59.754;10.110;2023-09-08T05:14:52;16.77;85.27
65291;SHT30;51893;59.754;10.110;2023-09-08T05:17:24;16.80;85.20
65291;SHT30;51893;59.754;10.110;2023-09-08T05:19:52;16.81;85.20
65291;SHT30;51893;59.754;10.110;2023-09-08T05:22:20;16.78;85.23
65291;SHT30;51893;59.754;10.110;2023-09-08T05:24:49;16.78;85.42
65291;SHT30;51893;59.754;10.110;2023-09-08T05:27:17;16.80;85.45
65291;SHT30;51893;59.754;10.110;2023-09-08T05:29:45;16.81;85.31
65291;SHT30;51893;59.754;10.110;2023-09-08T05:32:13;16.81;85.29
65291;SHT30;51893;59.754;10.110;2023-09-08T05:34:41;16.81;85.30
65291;SHT30;51893;59.754;10.110;2023-09-08T05:37:09;16.82;85.35
65291;SHT30;51893;59.754;10.110;2023-09-08T05:39:37;16.82;85.30
65291;SHT30;51893;59.754;10.110;2023-09-08T05:42:05;16.81;85.34
65291;SHT30;51893;59.754;10.110;2023-09-08T05:44:33;16.79;85.36
65291;SHT30;51893;59.754;10.110;2023-09-08T05:47:02;16.74;85.46
65291;SHT30;51893;59.754;10.110;2023-09-08T05:49:30;16.71;85.56
65291;SHT30;51893;59.754;10.110;2023-09-08T05:52:01;16.71;85.61
65291;SHT30;51893;59.754;10.110;2023-09-08T05:54:29;16.77;85.51
65291;SHT30;51893;59.754;10.110;2023-09-08T05:56:57;16.83;85.28
65291;SHT30;51893;59.754;10.110;2023-09-08T05:59:26;16.85;85.27
65291;SHT30;51893;59.754;10.110;2023-09-08T06:01:54;16.87;85.29
65291;SHT30;51893;59.754;10.110;2023-09-08T06:04:22;16.86;85.31
65291;SHT30;51893;59.754;10.110;2023-09-08T06:06:50;16.81;85.24
65291;SHT30;51893;59.754;10.110;2023-09-08T06:09:19;16.82;85.08
65291;SHT30;51893;59.754;10.110;2023-09-08T06:11:48;16.81;85.06
65291;SHT30;51893;59.754;10.110;2023-09-08T06:14:16;16.85;84.98
65291;SHT30;51893;59.754;10.110;2023-09-08T06:16:44;16.89;84.87
65291;SHT30;51893;59.754;10.110;2023-09-08T06:19:12;16.95;84.83
65291;SHT30;51893;59.754;10.110;2023-09-08T06:21:40;16.98;84.89
65291;SHT30;51893;59.754;10.110;2023-09-08T06:24:09;16.96;84.86
65291;SHT30;51893;59.754;10.110;2023-09-08T06:26:37;16.93;84.74
65291;SHT30;51893;59.754;10.110;2023-09-08T06:29:06;16.94;84.90
65291;SHT30;51893;59.754;10.110;2023-09-08T06:31:34;16.94;84.82
65291;SHT30;51893;59.754;10.110;2023-09-08T06:34:02;16.94;84.80
65291;SHT30;51893;59.754;10.110;2023-09-08T06:36:30;16.98;84.83
65291;SHT30;51893;59.754;10.110;2023-09-08T06:38:59;17.02;84.78
65291;SHT30;51893;59.754;10.110;2023-09-08T06:41:27;17.02;84.70
65291;SHT30;51893;59.754;10.110;2023-09-08T06:43:56;17.04;84.69
65291;SHT30;51893;59.754;10.110;2023-09-08T06:46:25;16.97;84.71
65291;SHT30;51893;59.754;10.110;2023-09-08T06:48:53;16.96;84.80
65291;SHT30;51893;59.754;10.110;2023-09-08T06:51:21;16.97;84.81
65291;SHT30;51893;59.754;10.110;2023-09-08T06:53:55;16.97;84.83
65291;SHT30;51893;59.754;10.110;2023-09-08T06:56:25;16.96;84.83
65291;SHT30;51893;59.754;10.110;2023-09-08T06:58:54;16.96;84.80
65291;SHT30;51893;59.754;10.110;2023-09-08T07:01:22;16.95;84.76
65291;SHT30;51893;59.754;10.110;2023-09-08T07:03:51;16.91;84.66
65291;SHT30;51893;59.754;10.110;2023-09-08T07:06:20;16.85;84.70
65291;SHT30;51893;59.754;10.110;2023-09-08T07:08:50;16.84;84.74
65291;SHT30;51893;59.754;10.110;2023-09-08T07:11:18;16.87;84.80
65291;SHT30;51893;59.754;10.110;2023-09-08T07:13:47;16.90;84.80
65291;SHT30;51893;59.754;10.110;2023-09-08T07:16:14;16.92;84.73
65291;SHT30;51893;59.754;10.110;2023-09-08T07:18:43;16.93;84.65
65291;SHT30;51893;59.754;10.110;2023-09-08T07:21:11;16.92;84.62
65291;SHT30;51893;59.754;10.110;2023-09-08T07:23:39;16.96;84.56
65291;SHT30;51893;59.754;10.110;2023-09-08T07:26:07;16.97;84.51
65291;SHT30;51893;59.754;10.110;2023-09-08T07:28:35;16.98;84.61
65291;SHT30;51893;59.754;10.110;2023-09-08T07:31:05;16.96;84.67
65291;SHT30;51893;59.754;10.110;2023-09-08T07:33:37;16.94;84.70
65291;SHT30;51893;59.754;10.110;2023-09-08T07:36:07;16.93;84.74
65291;SHT30;51893;59.754;10.110;2023-09-08T07:38:36;16.91;84.75
65291;SHT30;51893;59.754;10.110;2023-09-08T07:41:04;16.94;84.72
65291;SHT30;51893;59.754;10.110;2023-09-08T07:43:32;16.96;84.70
65291;SHT30;51893;59.754;10.110;2023-09-08T07:46:01;17.00;84.69
65291;SHT30;51893;59.754;10.110;2023-09-08T07:48:29;17.02;84.56
65291;SHT30;51893;59.754;10.110;2023-09-08T07:50:58;17.02;84.42
65291;SHT30;51893;59.754;10.110;2023-09-08T07:53:28;17.09;84.33
65291;SHT30;51893;59.754;10.110;2023-09-08T07:55:56;17.12;84.15
65291;SHT30;51893;59.754;10.110;2023-09-08T07:58:26;17.18;84.10
65291;SHT30;51893;59.754;10.110;2023-09-08T08:00:56;17.22;84.05
65291;SHT30;51893;59.754;10.110;2023-09-08T08:03:24;17.26;83.90
65291;SHT30;51893;59.754;10.110;2023-09-08T08:05:52;17.26;83.80
65291;SHT30;51893;59.754;10.110;2023-09-08T08:08:20;17.31;83.72
65291;SHT30;51893;59.754;10.110;2023-09-08T08:10:49;17.38;83.64
65291;SHT30;51893;59.754;10.110;2023-09-08T08:13:17;17.41;83.35
65291;SHT30;51893;59.754;10.110;2023-09-08T08:15:45;17.45;83.23
65291;SHT30;51893;59.754;10.110;2023-09-08T08:18:15;17.51;83.27
65291;SHT30;51893;59.754;10.110;2023-09-08T08:20:44;17.56;83.25
65291;SHT30;51893;59.754;10.110;2023-09-08T08:23:12;17.54;83.10
65291;SHT30;51893;59.754;10.110;2023-09-08T08:25:41;17.51;83.19
65291;SHT30;51893;59.754;10.110;2023-09-08T08:28:09;17.52;83.19
65291;SHT30;51893;59.754;10.110;2023-09-08T08:30:37;17.51;83.13
65291;SHT30;51893;59.754;10.110;2023-09-08T08:33:05;17.50;83.11
65291;SHT30;51893;59.754;10.110;2023-09-08T08:35:33;17.50;83.14
65291;SHT30;51893;59.754;10.110;2023-09-08T08:38:02;17.57;82.92
65291;SHT30;51893;59.754;10.110;2023-09-08T08:40:30;17.58;82.81
65291;SHT30;51893;59.754;10.110;2023-09-08T08:43:01;17.61;82.73
65291;SHT30;51893;59.754;10.110;2023-09-08T08:45:29;17.62;82.66
65291;SHT30;51893;59.754;10.110;2023-09-08T08:47:58;17.54;82.67
65291;SHT30;51893;59.754;10.110;2023-09-08T08:50:29;17.58;82.79
65291;SHT30;51893;59.754;10.110;2023-09-08T08:52:59;17.62;82.65
65291;SHT30;51893;59.754;10.110;2023-09-08T08:55:27;17.70;82.58
65291;SHT30;51893;59.754;10.110;2023-09-08T08:58:00;17.79;82.43
65291;SHT30;51893;59.754;10.110;2023-09-08T09:00:34;17.86;82.31
65291;SHT30;51893;59.754;10.110;2023-09-08T09:03:05;17.88;81.98
65291;SHT30;51893;59.754;10.110;2023-09-08T09:05:43;17.91;81.95
65291;SHT30;51893;59.754;10.110;2023-09-08T09:08:16;17.89;81.92
65291;SHT30;51893;59.754;10.110;2023-09-08T09:10:46;17.91;81.95
65291;SHT30;51893;59.754;10.110;2023-09-08T09:13:14;17.98;81.83
65291;SHT30;51893;59.754;10.110;2023-09-08T09:15:42;17.99;81.76
65291;SHT30;51893;59.754;10.110;2023-09-08T09:18:13;17.99;81.65
65291;SHT30;51893;59.754;10.110;2023-09-08T09:20:44;17.93;81.56
65291;SHT30;51893;59.754;10.110;2023-09-08T09:25:58;17.90;81.70
65291;SHT30;51893;59.754;10.110;2023-09-08T09:28:28;17.92;81.91
65291;SHT30;51893;59.754;10.110;2023-09-08T09:30:57;17.97;81.91
65291;SHT30;51893;59.754;10.110;2023-09-08T09:33:27;18.04;81.92
65291;SHT30;51893;59.754;10.110;2023-09-08T09:35:56;18.11;81.83
65291;SHT30;51893;59.754;10.110;2023-09-08T09:38:26;18.10;81.48
65291;SHT30;51893;59.754;10.110;2023-09-08T09:40:55;18.07;81.42
65291;SHT30;51893;59.754;10.110;2023-09-08T09:43:24;18.09;81.56
65291;SHT30;51893;59.754;10.110;2023-09-08T09:45:55;18.12;81.66
65291;SHT30;51893;59.754;10.110;2023-09-08T09:48:23;18.24;81.72
65291;SHT30;51893;59.754;10.110;2023-09-08T09:50:51;18.29;81.60
65291;SHT30;51893;59.754;10.110;2023-09-08T09:53:19;18.33;81.68
65291;SHT30;51893;59.754;10.110;2023-09-08T09:55:48;18.32;81.60
65291;SHT30;51893;59.754;10.110;2023-09-08T09:58:16;18.36;81.51
65291;SHT30;51893;59.754;10.110;2023-09-08T10:00:48;18.35;81.38
65291;SHT30;51893;59.754;10.110;2023-09-08T10:03:19;18.36;81.21
65291;SHT30;51893;59.754;10.110;2023-09-08T10:05:48;18.35;81.28
65291;SHT30;51893;59.754;10.110;2023-09-08T10:08:17;18.37;81.34
65291;SHT30;51893;59.754;10.110;2023-09-08T10:10:45;18.43;81.41
65291;SHT30;51893;59.754;10.110;2023-09-08T10:13:16;18.52;81.35
65291;SHT30;51893;59.754;10.110;2023-09-08T10:15:52;18.62;81.26
65291;SHT30;51893;59.754;10.110;2023-09-08T10:18:26;18.71;80.93
65291;SHT30;51893;59.754;10.110;2023-09-08T10:20:57;18.77;80.81
65291;SHT30;51893;59.754;10.110;2023-09-08T10:23:33;18.83;80.62
65291;SHT30;51893;59.754;10.110;2023-09-08T10:26:23;18.85;80.52
65291;SHT30;51893;59.754;10.110;2023-09-08T10:28:55;18.88;80.48
65291;SHT30;51893;59.754;10.110;2023-09-08T10:31:27;18.92;80.25
65291;SHT30;51893;59.754;10.110;2023-09-08T10:33:57;18.93;80.09
65291;SHT30;51893;59.754;10.110;2023-09-08T10:36:26;18.95;79.94
65291;SHT30;51893;59.754;10.110;2023-09-08T10:39:21;18.95;79.83
65291;SHT30;51893;59.754;10.110;2023-09-08T10:47:26;19.05;79.66
65291;SHT30;51893;59.754;10.110;2023-09-08T10:50:34;19.01;79.55
65291;SHT30;51893;59.754;10.110;2023-09-08T10:53:13;18.93;79.44
65291;SHT30;51893;59.754;10.110;2023-09-08T10:55:49;18.91;79.56
65291;SHT30;51893;59.754;10.110;2023-09-08T10:58:29;18.92;79.37
65291;SHT30;51893;59.754;10.110;2023-09-08T11:01:02;18.91;79.47
65291;SHT30;51893;59.754;10.110;2023-09-08T11:06:09;19.12;79.44
65291;SHT30;51893;59.754;10.110;2023-09-08T11:08:40;19.13;79.18
65291;SHT30;51893;59.754;10.110;2023-09-08T11:11:11;19.11;79.12
65291;SHT30;51893;59.754;10.110;2023-09-08T11:13:44;19.18;79.20
65291;SHT30;51893;59.754;10.110;2023-09-08T11:16:15;19.35;79.20
65291;SHT30;51893;59.754;10.110;2023-09-08T11:18:43;19.49;78.83
65291;SHT30;51893;59.754;10.110;2023-09-08T11:21:12;19.59;78.56
65291;SHT30;51893;59.754;10.110;2023-09-08T11:23:40;19.60;78.42
65291;SHT30;51893;59.754;10.110;2023-09-08T11:26:08;19.64;78.23
65291;SHT30;51893;59.754;10.110;2023-09-08T11:28:37;19.65;78.20
65291;SHT30;51893;59.754;10.110;2023-09-08T11:31:06;19.70;78.00
65291;SHT30;51893;59.754;10.110;2023-09-08T11:33:35;19.75;77.80
65291;SHT30;51893;59.754;10.110;2023-09-08T11:36:11;19.81;77.70
65291;SHT30;51893;59.754;10.110;2023-09-08T11:38:46;19.83;77.70
65291;SHT30;51893;59.754;10.110;2023-09-08T11:41:14;19.82;77.66
65291;SHT30;51893;59.754;10.110;2023-09-08T11:43:44;19.82;77.38
65291;SHT30;51893;59.754;10.110;2023-09-08T11:46:12;19.84;77.36
65291;SHT30;51893;59.754;10.110;2023-09-08T11:48:42;19.86;77.19
65291;SHT30;51893;59.754;10.110;2023-09-08T11:51:11;19.92;77.34
65291;SHT30;51893;59.754;10.110;2023-09-08T11:53:39;20.03;77.19
65291;SHT30;51893;59.754;10.110;2023-09-08T11:56:09;20.11;76.97
65291;SHT30;51893;59.754;10.110;2023-09-08T11:58:37;20.21;76.86
65291;SHT30;51893;59.754;10.110;2023-09-08T12:01:06;20.28;76.74
65291;SHT30;51893;59.754;10.110;2023-09-08T12:03:35;20.30;76.62
65291;SHT30;51893;59.754;10.110;2023-09-08T12:06:26;20.38;76.39
65291;SHT30;51893;59.754;10.110;2023-09-08T12:08:55;20.36;76.17
65291;SHT30;51893;59.754;10.110;2023-09-08T12:11:33;20.35;76.47
65291;SHT30;51893;59.754;10.110;2023-09-08T12:14:06;20.39;76.44
65291;SHT30;51893;59.754;10.110;2023-09-08T12:16:37;20.47;76.35
65291;SHT30;51893;59.754;10.110;2023-09-08T12:19:05;20.54;76.20
65291;SHT30;51893;59.754;10.110;2023-09-08T12:21:35;20.72;76.15
65291;SHT30;51893;59.754;10.110;2023-09-08T12:27:25;20.99;75.45
65291;SHT30;51893;59.754;10.110;2023-09-08T12:29:54;21.12;75.28
65291;SHT30;51893;59.754;10.110;2023-09-08T12:32:32;21.26;74.84
65291;SHT30;51893;59.754;10.110;2023-09-08T12:35:03;21.48;74.85
65291;SHT30;51893;59.754;10.110;2023-09-08T12:37:32;21.80;74.19
65291;SHT30;51893;59.754;10.110;2023-09-08T12:40:01;21.96;73.95
65291;SHT30;51893;59.754;10.110;2023-09-08T12:42:30;22.22;73.44
65291;SHT30;51893;59.754;10.110;2023-09-08T12:45:01;22.40;72.80
65291;SHT30;51893;59.754;10.110;2023-09-08T12:47:29;22.49;71.69
65291;SHT30;51893;59.754;10.110;2023-09-08T12:49:57;22.53;71.31
65291;SHT30;51893;59.754;10.110;2023-09-08T12:52:25;22.62;71.39
65291;SHT30;51893;59.754;10.110;2023-09-08T12:54:54;22.75;70.84
65291;SHT30;51893;59.754;10.110;2023-09-08T12:57:21;22.87;70.50
65291;SHT30;51893;59.754;10.110;2023-09-08T12:59:49;22.89;69.99
65291;SHT30;51893;59.754;10.110;2023-09-08T13:02:19;22.76;70.15
65291;SHT30;51893;59.754;10.110;2023-09-08T13:04:47;22.65;70.16
65291;SHT30;51893;59.754;10.110;2023-09-08T13:07:16;22.52;70.33
65291;SHT30;51893;59.754;10.110;2023-09-08T13:09:45;22.45;70.75
65291;SHT30;51893;59.754;10.110;2023-09-08T13:12:13;22.42;70.82
65291;SHT30;51893;59.754;10.110;2023-09-08T13:14:42;22.45;71.07
65291;SHT30;51893;59.754;10.110;2023-09-08T13:17:11;22.57;70.94
65291;SHT30;51893;59.754;10.110;2023-09-08T13:19:39;22.60;70.74
65291;SHT30;51893;59.754;10.110;2023-09-08T13:22:08;22.57;70.77
65291;SHT30;51893;59.754;10.110;2023-09-08T13:24:36;22.54;70.78
65291;SHT30;51893;59.754;10.110;2023-09-08T13:27:04;22.46;70.88
65291;SHT30;51893;59.754;10.110;2023-09-08T13:29:33;22.25;70.67
65291;SHT30;51893;59.754;10.110;2023-09-08T13:32:01;22.08;71.18
65291;SHT30;51893;59.754;10.110;2023-09-08T13:34:30;21.97;71.42
65291;SHT30;51893;59.754;10.110;2023-09-08T13:36:58;21.84;71.78
65291;SHT30;51893;59.754;10.110;2023-09-08T13:39:26;21.79;72.21
65291;SHT30;51893;59.754;10.110;2023-09-08T13:41:55;21.82;72.36
65291;SHT30;51893;59.754;10.110;2023-09-08T13:44:28;21.84;72.43
65291;SHT30;51893;59.754;10.110;2023-09-08T13:46:57;21.86;72.38
65291;SHT30;51893;59.754;10.110;2023-09-08T13:49:25;22.01;72.43
65291;SHT30;51893;59.754;10.110;2023-09-08T13:51:55;22.30;72.27
65291;SHT30;51893;59.754;10.110;2023-09-08T13:54:24;22.54;71.43
65291;SHT30;51893;59.754;10.110;2023-09-08T13:56:59;22.67;71.08
65291;SHT30;51893;59.754;10.110;2023-09-08T13:59:35;22.82;71.07
65291;SHT30;51893;59.754;10.110;2023-09-08T14:02:12;22.86;70.92
65291;SHT30;51893;59.754;10.110;2023-09-08T14:04:43;22.79;70.85
65291;SHT30;51893;59.754;10.110;2023-09-08T14:07:15;22.70;71.00
65291;SHT30;51893;59.754;10.110;2023-09-08T14:09:52;22.52;71.46
65291;SHT30;51893;59.754;10.110;2023-09-08T14:12:33;22.42;71.90
65291;SHT30;51893;59.754;10.110;2023-09-08T14:15:02;22.42;72.07
65291;SHT30;51893;59.754;10.110;2023-09-08T14:17:34;22.26;72.47
65291;SHT30;51893;59.754;10.110;2023-09-08T14:20:02;22.15;72.85
65291;SHT30;51893;59.754;10.110;2023-09-08T14:22:32;22.07;73.16
65291;SHT30;51893;59.754;10.110;2023-09-08T14:25:01;22.06;73.32
65291;SHT30;51893;59.754;10.110;2023-09-08T14:27:31;22.06;73.48
65291;SHT30;51893;59.754;10.110;2023-09-08T14:29:59;22.08;73.69
65291;SHT30;51893;59.754;10.110;2023-09-08T14:32:28;22.11;73.80
65291;SHT30;51893;59.754;10.110;2023-09-08T14:34:57;22.10;73.79
65291;SHT30;51893;59.754;10.110;2023-09-08T14:37:28;22.04;73.99
65291;SHT30;51893;59.754;10.110;2023-09-08T14:39:56;22.04;74.16
65291;SHT30;51893;59.754;10.110;2023-09-08T14:42:24;22.01;74.17
65291;SHT30;51893;59.754;10.110;2023-09-08T14:44:52;22.00;74.29
65291;SHT30;51893;59.754;10.110;2023-09-08T14:47:21;21.93;74.31
65291;SHT30;51893;59.754;10.110;2023-09-08T14:49:49;21.89;74.49
65291;SHT30;51893;59.754;10.110;2023-09-08T14:52:17;21.79;74.67
65291;SHT30;51893;59.754;10.110;2023-09-08T14:54:49;21.64;74.98
65291;SHT30;51893;59.754;10.110;2023-09-08T14:57:17;21.55;75.25
65291;SHT30;51893;59.754;10.110;2023-09-08T14:59:45;21.52;75.47
65291;SHT30;51893;59.754;10.110;2023-09-08T15:02:14;21.50;75.63
65291;SHT30;51893;59.754;10.110;2023-09-08T15:04:42;21.47;75.74
65291;SHT30;51893;59.754;10.110;2023-09-08T15:07:13;21.43;75.98
65291;SHT30;51893;59.754;10.110;2023-09-08T15:09:42;21.36;76.14
65291;SHT30;51893;59.754;10.110;2023-09-08T15:12:11;21.31;76.36
65291;SHT30;51893;59.754;10.110;2023-09-08T15:14:39;21.26;76.54
65291;SHT30;51893;59.754;10.110;2023-09-08T15:17:10;21.21;76.72
65291;SHT30;51893;59.754;10.110;2023-09-08T15:19:43;21.15;76.93
65291;SHT30;51893;59.754;10.110;2023-09-08T15:22:11;21.10;77.15
65291;SHT30;51893;59.754;10.110;2023-09-08T15:24:40;21.06;77.39
65291;SHT30;51893;59.754;10.110;2023-09-08T15:27:08;21.02;77.58
65291;SHT30;51893;59.754;10.110;2023-09-08T15:29:38;21.01;77.62
65291;SHT30;51893;59.754;10.110;2023-09-08T15:32:06;20.97;77.73
65291;SHT30;51893;59.754;10.110;2023-09-08T15:34:36;20.91;77.98
65291;SHT30;51893;59.754;10.110;2023-09-08T15:37:05;20.87;78.17
65291;SHT30;51893;59.754;10.110;2023-09-08T15:39:33;20.83;78.30
65291;SHT30;51893;59.754;10.110;2023-09-08T15:42:02;20.79;78.42
65291;SHT30;51893;59.754;10.110;2023-09-08T15:44:32;20.69;78.81
65291;SHT30;51893;59.754;10.110;2023-09-08T15:47:02;20.61;79.21